RRR4255 LBSF-LTFM
Flight info
| Callsign | RRR4255 |
|---|---|
| Flight time | N/A |
| Altitude | 31000 |
| Route | RUMEN N739 PDV P127 AYTEK |
| Aircraft | A400/H-SDE2E3FGHIJ4J5M1RWXYZ/L4T |
Departure
| Time | 2026-05-07 14:41 |
|---|---|
| Airport | Sofia Airport (LBSF) |
Arrival
| Time | N/A |
|---|---|
| Airport | İstanbul Airport (LTFM) |
| Time | Latitude | Longitude | Altitude | Speed | Heading |
|---|---|---|---|---|---|
| 2026-05-07 14:28 | 42.69055 | 23.40438 | 1762 ft | 0 kts | 195° |
| 2026-05-07 14:32 | 42.69049 | 23.40435 | 1762 ft | 3 kts | 195° |
| 2026-05-07 14:32 | 42.69009 | 23.40439 | 1766 ft | 8 kts | 142° |
| 2026-05-07 14:33 | 42.68982 | 23.40540 | 1764 ft | 15 kts | 107° |
| 2026-05-07 14:33 | 42.68945 | 23.40702 | 1767 ft | 21 kts | 108° |
| 2026-05-07 14:33 | 42.68918 | 23.40906 | 1766 ft | 22 kts | 69° |
| 2026-05-07 14:33 | 42.68957 | 23.41015 | 1766 ft | 7 kts | 110° |
| 2026-05-07 14:34 | 42.68955 | 23.41090 | 1764 ft | 9 kts | 69° |
| 2026-05-07 14:34 | 42.68980 | 23.41182 | 1767 ft | 12 kts | 71° |
| 2026-05-07 14:34 | 42.69047 | 23.41232 | 1765 ft | 12 kts | 351° |
| 2026-05-07 14:34 | 42.69123 | 23.41198 | 1765 ft | 12 kts | 342° |
| 2026-05-07 14:35 | 42.69202 | 23.41164 | 1765 ft | 12 kts | 342° |
| 2026-05-07 14:35 | 42.69280 | 23.41167 | 1764 ft | 12 kts | 12° |
| 2026-05-07 14:35 | 42.69370 | 23.41192 | 1763 ft | 14 kts | 11° |
| 2026-05-07 14:35 | 42.69471 | 23.41219 | 1764 ft | 15 kts | 11° |
| 2026-05-07 14:36 | 42.69518 | 23.41270 | 1766 ft | 4 kts | 112° |
| 2026-05-07 14:36 | 42.69505 | 23.41303 | 1767 ft | 8 kts | 118° |
| 2026-05-07 14:36 | 42.69480 | 23.41388 | 1763 ft | 11 kts | 104° |
| 2026-05-07 14:36 | 42.69469 | 23.41550 | 1762 ft | 14 kts | 94° |
| 2026-05-07 14:37 | 42.69461 | 23.41694 | 1762 ft | 16 kts | 95° |
| 2026-05-07 14:37 | 42.69445 | 23.41963 | 1765 ft | 19 kts | 94° |
| 2026-05-07 14:37 | 42.69434 | 23.42156 | 1766 ft | 22 kts | 94° |
| 2026-05-07 14:38 | 42.69422 | 23.42368 | 1767 ft | 24 kts | 94° |
| 2026-05-07 14:38 | 42.69408 | 23.42600 | 1766 ft | 26 kts | 95° |
| 2026-05-07 14:38 | 42.69393 | 23.42847 | 1766 ft | 27 kts | 95° |
| 2026-05-07 14:38 | 42.69378 | 23.43104 | 1767 ft | 28 kts | 94° |
| 2026-05-07 14:39 | 42.69363 | 23.43366 | 1765 ft | 28 kts | 96° |
| 2026-05-07 14:39 | 42.69347 | 23.43630 | 1766 ft | 28 kts | 94° |
| 2026-05-07 14:39 | 42.69335 | 23.43895 | 1811 ft | 25 kts | 77° |
| 2026-05-07 14:39 | 42.69476 | 23.43955 | 1810 ft | 22 kts | 352° |
| 2026-05-07 14:40 | 42.69527 | 23.43797 | 1812 ft | 18 kts | 274° |
| 2026-05-07 14:40 | 42.69538 | 23.43628 | 1766 ft | 19 kts | 276° |
| 2026-05-07 14:40 | 42.69576 | 23.42998 | 1763 ft | 125 kts | 274° |
| 2026-05-07 14:40 | 42.69667 | 23.41468 | 2017 ft | 179 kts | 276° |
| 2026-05-07 14:41 | 42.69763 | 23.39846 | 3188 ft | 169 kts | 282° |
| 2026-05-07 14:41 | 42.70483 | 23.38602 | 4117 ft | 191 kts | 332° |
| 2026-05-07 14:41 | 42.71901 | 23.37979 | 4650 ft | 236 kts | 342° |
| 2026-05-07 14:41 | 42.73572 | 23.37310 | 5374 ft | 263 kts | 340° |
| 2026-05-07 14:42 | 42.75384 | 23.36609 | 6309 ft | 275 kts | 342° |
| 2026-05-07 14:42 | 42.77244 | 23.35901 | 7334 ft | 280 kts | 342° |
| 2026-05-07 14:42 | 42.79140 | 23.35179 | 8354 ft | 286 kts | 342° |
| 2026-05-07 14:42 | 42.81075 | 23.34439 | 9394 ft | 291 kts | 342° |
| 2026-05-07 14:43 | 42.83039 | 23.33686 | 10395 ft | 296 kts | 342° |
| 2026-05-07 14:43 | 42.85083 | 23.32939 | 11044 ft | 315 kts | 347° |
| 2026-05-07 14:43 | 42.87352 | 23.33066 | 11375 ft | 341 kts | 17° |
| 2026-05-07 14:43 | 42.89298 | 23.34892 | 12032 ft | 349 kts | 51° |
| 2026-05-07 14:44 | 42.90161 | 23.37956 | 12547 ft | 353 kts | 89° |
| 2026-05-07 14:44 | 42.89511 | 23.41107 | 13202 ft | 347 kts | 126° |
| 2026-05-07 14:44 | 42.87800 | 23.43363 | 13910 ft | 344 kts | 146° |
| 2026-05-07 14:44 | 42.85749 | 23.45041 | 14463 ft | 344 kts | 154° |
| 2026-05-07 14:45 | 42.83636 | 23.46581 | 15118 ft | 344 kts | 155° |
| 2026-05-07 14:45 | 42.81462 | 23.47940 | 15725 ft | 345 kts | 159° |
| 2026-05-07 14:45 | 42.79250 | 23.49283 | 16214 ft | 351 kts | 158° |
| 2026-05-07 14:45 | 42.77015 | 23.50694 | 16634 ft | 357 kts | 158° |
| 2026-05-07 14:46 | 42.74750 | 23.52139 | 17101 ft | 361 kts | 158° |
| 2026-05-07 14:46 | 42.72457 | 23.53566 | 17600 ft | 364 kts | 159° |
| 2026-05-07 14:46 | 42.70126 | 23.54975 | 18120 ft | 367 kts | 159° |
| 2026-05-07 14:46 | 42.67759 | 23.56394 | 18502 ft | 375 kts | 159° |